Terminal Aerodrome Forecast
Issued by NWS Upton, NY

Home | Current Version | Previous Version | Text Only | Print | Product List | Glossary On
Versions: 1 2 3 4 5 6 7 8 9 10 11 12 13 14 15 16 17 18 19 20 21 22 23 24 25 26 27 28
000
FTUS41 KOKX 141100
TAFISP
TAF
KISP 141130Z 1412/1512 22008KT P6SM SCT020 BKN050
     FM141900 18011KT P6SM VCSH BKN040
     FM142300 19008KT 4SM SHRA SCT025 BKN050
      TEMPO 1501/1505 3SM TSRA BKN050CB
     FM150500 18008KT 3SM BR VCSH SCT015 BKN030=

USA.gov is the U.S. government's official web portal to all federal, state and local government web resources and services.